<?xml version="1.0" encoding="UTF-8" standalone="no" ?>
<gpx xmlns="http://www.topografix.com/GPX/1/1" xmlns:xsi="http://www.w3.org/2001/XMLSchema-instance" xsi:schemaLocation="http://www.topografix.com/GPX/1/1 http://www.topografix.com/GPX/1/1/gpx.xsd" version="1.1" creator="VisuGPX - https://www.visugpx.com">
  <metadata>
    <name>rando à Heux</name>
    <desc><![CDATA[rando pour le lundi]]></desc>
  </metadata>
  <trk>
    <name><![CDATA[rando à Heux_1]]></name>
    <trkseg>
      <trkpt lat="43.99065" lon="0.28994">
        <ele>200</ele>
        <time>2015-01-21T10:10:59Z</time>
      </trkpt>
      <trkpt lat="43.99068" lon="0.28985">
        <ele>202</ele>
        <time>2015-01-21T10:11:28Z</time>
      </trkpt>
      <trkpt lat="43.99086" lon="0.28962">
        <ele>202</ele>
        <time>2015-01-21T10:11:59Z</time>
      </trkpt>
      <trkpt lat="43.99131" lon="0.28884">
        <ele>202</ele>
        <time>2015-01-21T10:12:28Z</time>
      </trkpt>
      <trkpt lat="43.99194" lon="0.28772">
        <ele>202</ele>
        <time>2015-01-21T10:12:59Z</time>
      </trkpt>
      <trkpt lat="43.99254" lon="0.28667">
        <ele>202</ele>
        <time>2015-01-21T10:13:29Z</time>
      </trkpt>
      <trkpt lat="43.99324" lon="0.28539">
        <ele>202</ele>
        <time>2015-01-21T10:13:59Z</time>
      </trkpt>
      <trkpt lat="43.99337" lon="0.28515">
        <ele>202</ele>
        <time>2015-01-21T10:14:29Z</time>
      </trkpt>
      <trkpt lat="43.99383" lon="0.2842">
        <ele>202</ele>
        <time>2015-01-21T10:14:59Z</time>
      </trkpt>
      <trkpt lat="43.99436" lon="0.28328">
        <ele>210</ele>
        <time>2015-01-21T10:15:30Z</time>
      </trkpt>
      <trkpt lat="43.99494" lon="0.28231">
        <ele>215</ele>
        <time>2015-01-21T10:16:00Z</time>
      </trkpt>
      <trkpt lat="43.99559" lon="0.28153">
        <ele>220</ele>
        <time>2015-01-21T10:16:30Z</time>
      </trkpt>
      <trkpt lat="43.99621" lon="0.28054">
        <ele>225</ele>
        <time>2015-01-21T10:17:00Z</time>
      </trkpt>
      <trkpt lat="43.9964" lon="0.27942">
        <ele>225</ele>
        <time>2015-01-21T10:17:30Z</time>
      </trkpt>
      <trkpt lat="43.9966" lon="0.27838">
        <ele>225</ele>
        <time>2015-01-21T10:18:00Z</time>
      </trkpt>
      <trkpt lat="43.99643" lon="0.27823">
        <ele>225</ele>
        <time>2015-01-21T10:18:31Z</time>
      </trkpt>
      <trkpt lat="43.99498" lon="0.27759">
        <ele>205</ele>
        <time>2015-01-21T10:19:01Z</time>
      </trkpt>
      <trkpt lat="43.99445" lon="0.27735">
        <ele>205</ele>
        <time>2015-01-21T10:19:31Z</time>
      </trkpt>
      <trkpt lat="43.99245" lon="0.27616">
        <ele>193</ele>
        <time>2015-01-21T10:20:01Z</time>
      </trkpt>
      <trkpt lat="43.99151" lon="0.27576">
        <ele>197</ele>
        <time>2015-01-21T10:20:32Z</time>
      </trkpt>
      <trkpt lat="43.99074" lon="0.27523">
        <ele>197</ele>
        <time>2015-01-21T10:21:01Z</time>
      </trkpt>
      <trkpt lat="43.98996" lon="0.27479">
        <ele>201</ele>
        <time>2015-01-21T10:21:32Z</time>
      </trkpt>
      <trkpt lat="43.98934" lon="0.2744">
        <ele>201</ele>
        <time>2015-01-21T10:22:02Z</time>
      </trkpt>
      <trkpt lat="43.98936" lon="0.2744">
        <ele>201</ele>
        <time>2015-01-21T10:22:32Z</time>
      </trkpt>
      <trkpt lat="43.98939" lon="0.27439">
        <ele>201</ele>
        <time>2015-01-21T10:23:02Z</time>
      </trkpt>
      <trkpt lat="43.98937" lon="0.27439">
        <ele>201</ele>
        <time>2015-01-21T10:23:32Z</time>
      </trkpt>
      <trkpt lat="43.98958" lon="0.27358">
        <ele>205</ele>
        <time>2015-01-21T10:24:02Z</time>
      </trkpt>
      <trkpt lat="43.98948" lon="0.27279">
        <ele>205</ele>
        <time>2015-01-21T10:24:33Z</time>
      </trkpt>
      <trkpt lat="43.98949" lon="0.27264">
        <ele>205</ele>
        <time>2015-01-21T10:25:03Z</time>
      </trkpt>
      <trkpt lat="43.98944" lon="0.2723">
        <ele>205</ele>
        <time>2015-01-21T10:25:33Z</time>
      </trkpt>
      <trkpt lat="43.98938" lon="0.27218">
        <ele>209</ele>
        <time>2015-01-21T10:26:03Z</time>
      </trkpt>
      <trkpt lat="43.98939" lon="0.27211">
        <ele>209</ele>
        <time>2015-01-21T10:26:33Z</time>
      </trkpt>
      <trkpt lat="43.9894" lon="0.27209">
        <ele>209</ele>
        <time>2015-01-21T10:27:04Z</time>
      </trkpt>
      <trkpt lat="43.98934" lon="0.27203">
        <ele>209</ele>
        <time>2015-01-21T10:27:34Z</time>
      </trkpt>
      <trkpt lat="43.98932" lon="0.27204">
        <ele>209</ele>
        <time>2015-01-21T10:28:04Z</time>
      </trkpt>
      <trkpt lat="43.9893" lon="0.27207">
        <ele>209</ele>
        <time>2015-01-21T10:28:34Z</time>
      </trkpt>
      <trkpt lat="43.98932" lon="0.27205">
        <ele>209</ele>
        <time>2015-01-21T10:29:04Z</time>
      </trkpt>
      <trkpt lat="43.98933" lon="0.27203">
        <ele>209</ele>
        <time>2015-01-21T10:29:34Z</time>
      </trkpt>
      <trkpt lat="43.98934" lon="0.27203">
        <ele>209</ele>
        <time>2015-01-21T10:30:05Z</time>
      </trkpt>
      <trkpt lat="43.98932" lon="0.27203">
        <ele>209</ele>
        <time>2015-01-21T10:30:35Z</time>
      </trkpt>
      <trkpt lat="43.98926" lon="0.27167">
        <ele>209</ele>
        <time>2015-01-21T10:31:05Z</time>
      </trkpt>
      <trkpt lat="43.98907" lon="0.27153">
        <ele>209</ele>
        <time>2015-01-21T10:31:35Z</time>
      </trkpt>
      <trkpt lat="43.98888" lon="0.27155">
        <ele>206</ele>
        <time>2015-01-21T10:32:05Z</time>
      </trkpt>
      <trkpt lat="43.98864" lon="0.27161">
        <ele>206</ele>
        <time>2015-01-21T10:32:35Z</time>
      </trkpt>
      <trkpt lat="43.98833" lon="0.27156">
        <ele>206</ele>
        <time>2015-01-21T10:33:06Z</time>
      </trkpt>
      <trkpt lat="43.98806" lon="0.27147">
        <ele>206</ele>
        <time>2015-01-21T10:33:36Z</time>
      </trkpt>
      <trkpt lat="43.98785" lon="0.27138">
        <ele>202</ele>
        <time>2015-01-21T10:34:06Z</time>
      </trkpt>
      <trkpt lat="43.98758" lon="0.27132">
        <ele>202</ele>
        <time>2015-01-21T10:34:36Z</time>
      </trkpt>
      <trkpt lat="43.98725" lon="0.27114">
        <ele>202</ele>
        <time>2015-01-21T10:35:06Z</time>
      </trkpt>
      <trkpt lat="43.9869" lon="0.27099">
        <ele>202</ele>
        <time>2015-01-21T10:35:36Z</time>
      </trkpt>
      <trkpt lat="43.98661" lon="0.27068">
        <ele>202</ele>
        <time>2015-01-21T10:36:07Z</time>
      </trkpt>
      <trkpt lat="43.9864" lon="0.27051">
        <ele>202</ele>
        <time>2015-01-21T10:36:37Z</time>
      </trkpt>
      <trkpt lat="43.98628" lon="0.27041">
        <ele>204</ele>
        <time>2015-01-21T10:37:07Z</time>
      </trkpt>
      <trkpt lat="43.98609" lon="0.2703">
        <ele>204</ele>
        <time>2015-01-21T10:37:37Z</time>
      </trkpt>
      <trkpt lat="43.98558" lon="0.27004">
        <ele>204</ele>
        <time>2015-01-21T10:38:07Z</time>
      </trkpt>
      <trkpt lat="43.9851" lon="0.26964">
        <ele>204</ele>
        <time>2015-01-21T10:38:37Z</time>
      </trkpt>
      <trkpt lat="43.98465" lon="0.26922">
        <ele>204</ele>
        <time>2015-01-21T10:39:08Z</time>
      </trkpt>
      <trkpt lat="43.98419" lon="0.26907">
        <ele>208</ele>
        <time>2015-01-21T10:39:38Z</time>
      </trkpt>
      <trkpt lat="43.98406" lon="0.26898">
        <ele>208</ele>
        <time>2015-01-21T10:40:08Z</time>
      </trkpt>
      <trkpt lat="43.98396" lon="0.26853">
        <ele>208</ele>
        <time>2015-01-21T10:40:38Z</time>
      </trkpt>
      <trkpt lat="43.98402" lon="0.26808">
        <ele>208</ele>
        <time>2015-01-21T10:41:08Z</time>
      </trkpt>
      <trkpt lat="43.9842" lon="0.26769">
        <ele>208</ele>
        <time>2015-01-21T10:41:39Z</time>
      </trkpt>
      <trkpt lat="43.98435" lon="0.26725">
        <ele>208</ele>
        <time>2015-01-21T10:42:09Z</time>
      </trkpt>
      <trkpt lat="43.98449" lon="0.26679">
        <ele>208</ele>
        <time>2015-01-21T10:42:39Z</time>
      </trkpt>
      <trkpt lat="43.98451" lon="0.26668">
        <ele>208</ele>
        <time>2015-01-21T10:43:09Z</time>
      </trkpt>
      <trkpt lat="43.9846" lon="0.26639">
        <ele>209</ele>
        <time>2015-01-21T10:43:39Z</time>
      </trkpt>
      <trkpt lat="43.98468" lon="0.26607">
        <ele>209</ele>
        <time>2015-01-21T10:44:09Z</time>
      </trkpt>
      <trkpt lat="43.98473" lon="0.26561">
        <ele>209</ele>
        <time>2015-01-21T10:44:40Z</time>
      </trkpt>
      <trkpt lat="43.98478" lon="0.26512">
        <ele>209</ele>
        <time>2015-01-21T10:45:10Z</time>
      </trkpt>
      <trkpt lat="43.98489" lon="0.26436">
        <ele>209</ele>
        <time>2015-01-21T10:45:40Z</time>
      </trkpt>
      <trkpt lat="43.98492" lon="0.26418">
        <ele>209</ele>
        <time>2015-01-21T10:46:10Z</time>
      </trkpt>
      <trkpt lat="43.98459" lon="0.26427">
        <ele>206</ele>
        <time>2015-01-21T10:46:40Z</time>
      </trkpt>
      <trkpt lat="43.98406" lon="0.26444">
        <ele>206</ele>
        <time>2015-01-21T10:47:10Z</time>
      </trkpt>
      <trkpt lat="43.98353" lon="0.26457">
        <ele>214</ele>
        <time>2015-01-21T10:47:41Z</time>
      </trkpt>
      <trkpt lat="43.98294" lon="0.26456">
        <ele>214</ele>
        <time>2015-01-21T10:48:11Z</time>
      </trkpt>
      <trkpt lat="43.98228" lon="0.26451">
        <ele>214</ele>
        <time>2015-01-21T10:48:41Z</time>
      </trkpt>
      <trkpt lat="43.98175" lon="0.26503">
        <ele>218</ele>
        <time>2015-01-21T10:49:11Z</time>
      </trkpt>
      <trkpt lat="43.98132" lon="0.26473">
        <ele>218</ele>
        <time>2015-01-21T10:49:41Z</time>
      </trkpt>
      <trkpt lat="43.98068" lon="0.26437">
        <ele>223</ele>
        <time>2015-01-21T10:50:11Z</time>
      </trkpt>
      <trkpt lat="43.98001" lon="0.26437">
        <ele>227</ele>
        <time>2015-01-21T10:50:42Z</time>
      </trkpt>
      <trkpt lat="43.97954" lon="0.2646">
        <ele>227</ele>
        <time>2015-01-21T10:51:12Z</time>
      </trkpt>
      <trkpt lat="43.97927" lon="0.26474">
        <ele>227</ele>
        <time>2015-01-21T10:51:42Z</time>
      </trkpt>
      <trkpt lat="43.97841" lon="0.26533">
        <ele>219</ele>
        <time>2015-01-21T10:52:12Z</time>
      </trkpt>
      <trkpt lat="43.97841" lon="0.26534">
        <ele>219</ele>
        <time>2015-01-21T10:52:42Z</time>
      </trkpt>
      <trkpt lat="43.97842" lon="0.26535">
        <ele>219</ele>
        <time>2015-01-21T10:53:12Z</time>
      </trkpt>
      <trkpt lat="43.97818" lon="0.2657">
        <ele>219</ele>
        <time>2015-01-21T10:53:42Z</time>
      </trkpt>
      <trkpt lat="43.97782" lon="0.26612">
        <ele>219</ele>
        <time>2015-01-21T10:54:13Z</time>
      </trkpt>
      <trkpt lat="43.97825" lon="0.26564">
        <ele>215</ele>
        <time>2015-01-21T10:54:43Z</time>
      </trkpt>
      <trkpt lat="43.97846" lon="0.26465">
        <ele>222</ele>
        <time>2015-01-21T10:55:13Z</time>
      </trkpt>
      <trkpt lat="43.97864" lon="0.26385">
        <ele>222</ele>
        <time>2015-01-21T10:55:43Z</time>
      </trkpt>
      <trkpt lat="43.97887" lon="0.26316">
        <ele>229</ele>
        <time>2015-01-21T10:56:13Z</time>
      </trkpt>
      <trkpt lat="43.97887" lon="0.26313">
        <ele>229</ele>
        <time>2015-01-21T10:56:43Z</time>
      </trkpt>
      <trkpt lat="43.97872" lon="0.26291">
        <ele>229</ele>
        <time>2015-01-21T10:57:14Z</time>
      </trkpt>
      <trkpt lat="43.97855" lon="0.26257">
        <ele>229</ele>
        <time>2015-01-21T10:57:44Z</time>
      </trkpt>
      <trkpt lat="43.97833" lon="0.26231">
        <ele>229</ele>
        <time>2015-01-21T10:58:14Z</time>
      </trkpt>
      <trkpt lat="43.97816" lon="0.26211">
        <ele>229</ele>
        <time>2015-01-21T10:58:44Z</time>
      </trkpt>
      <trkpt lat="43.97778" lon="0.26193">
        <ele>229</ele>
        <time>2015-01-21T10:59:14Z</time>
      </trkpt>
      <trkpt lat="43.97737" lon="0.26177">
        <ele>229</ele>
        <time>2015-01-21T10:59:44Z</time>
      </trkpt>
      <trkpt lat="43.97709" lon="0.26165">
        <ele>225</ele>
        <time>2015-01-21T11:00:15Z</time>
      </trkpt>
      <trkpt lat="43.97676" lon="0.2615">
        <ele>225</ele>
        <time>2015-01-21T11:00:45Z</time>
      </trkpt>
      <trkpt lat="43.97654" lon="0.26119">
        <ele>225</ele>
        <time>2015-01-21T11:01:15Z</time>
      </trkpt>
      <trkpt lat="43.97626" lon="0.26116">
        <ele>225</ele>
        <time>2015-01-21T11:01:45Z</time>
      </trkpt>
      <trkpt lat="43.97598" lon="0.26146">
        <ele>225</ele>
        <time>2015-01-21T11:02:16Z</time>
      </trkpt>
      <trkpt lat="43.97589" lon="0.26149">
        <ele>225</ele>
        <time>2015-01-21T11:02:46Z</time>
      </trkpt>
      <trkpt lat="43.97589" lon="0.26149">
        <ele>225</ele>
        <time>2015-01-21T11:03:16Z</time>
      </trkpt>
      <trkpt lat="43.97615" lon="0.26152">
        <ele>226</ele>
        <time>2015-01-21T11:03:46Z</time>
      </trkpt>
      <trkpt lat="43.97614" lon="0.26152">
        <ele>226</ele>
        <time>2015-01-21T11:04:17Z</time>
      </trkpt>
      <trkpt lat="43.97615" lon="0.26152">
        <ele>226</ele>
        <time>2015-01-21T11:04:46Z</time>
      </trkpt>
      <trkpt lat="43.97616" lon="0.26152">
        <ele>226</ele>
        <time>2015-01-21T11:05:17Z</time>
      </trkpt>
      <trkpt lat="43.97615" lon="0.26149">
        <ele>226</ele>
        <time>2015-01-21T11:05:47Z</time>
      </trkpt>
      <trkpt lat="43.9759" lon="0.26163">
        <ele>226</ele>
        <time>2015-01-21T11:06:17Z</time>
      </trkpt>
      <trkpt lat="43.97569" lon="0.26201">
        <ele>226</ele>
        <time>2015-01-21T11:06:47Z</time>
      </trkpt>
      <trkpt lat="43.97548" lon="0.26243">
        <ele>225</ele>
        <time>2015-01-21T11:07:17Z</time>
      </trkpt>
      <trkpt lat="43.97525" lon="0.26281">
        <ele>225</ele>
        <time>2015-01-21T11:07:47Z</time>
      </trkpt>
      <trkpt lat="43.97499" lon="0.26321">
        <ele>221</ele>
        <time>2015-01-21T11:08:18Z</time>
      </trkpt>
      <trkpt lat="43.97492" lon="0.26331">
        <ele>221</ele>
        <time>2015-01-21T11:08:48Z</time>
      </trkpt>
      <trkpt lat="43.97468" lon="0.26341">
        <ele>221</ele>
        <time>2015-01-21T11:09:18Z</time>
      </trkpt>
      <trkpt lat="43.97451" lon="0.26331">
        <ele>221</ele>
        <time>2015-01-21T11:09:48Z</time>
      </trkpt>
      <trkpt lat="43.97451" lon="0.26333">
        <ele>221</ele>
        <time>2015-01-21T11:10:18Z</time>
      </trkpt>
      <trkpt lat="43.97432" lon="0.26327">
        <ele>221</ele>
        <time>2015-01-21T11:10:48Z</time>
      </trkpt>
      <trkpt lat="43.97394" lon="0.26304">
        <ele>221</ele>
        <time>2015-01-21T11:11:19Z</time>
      </trkpt>
      <trkpt lat="43.97359" lon="0.26285">
        <ele>214</ele>
        <time>2015-01-21T11:11:49Z</time>
      </trkpt>
      <trkpt lat="43.97326" lon="0.26267">
        <ele>214</ele>
        <time>2015-01-21T11:12:19Z</time>
      </trkpt>
      <trkpt lat="43.97295" lon="0.26238">
        <ele>209</ele>
        <time>2015-01-21T11:12:49Z</time>
      </trkpt>
      <trkpt lat="43.9728" lon="0.26223">
        <ele>209</ele>
        <time>2015-01-21T11:13:19Z</time>
      </trkpt>
      <trkpt lat="43.97278" lon="0.26194">
        <ele>209</ele>
        <time>2015-01-21T11:13:50Z</time>
      </trkpt>
      <trkpt lat="43.97269" lon="0.26176">
        <ele>209</ele>
        <time>2015-01-21T11:14:20Z</time>
      </trkpt>
      <trkpt lat="43.97244" lon="0.26204">
        <ele>209</ele>
        <time>2015-01-21T11:14:50Z</time>
      </trkpt>
      <trkpt lat="43.97216" lon="0.26223">
        <ele>209</ele>
        <time>2015-01-21T11:15:20Z</time>
      </trkpt>
      <trkpt lat="43.97201" lon="0.26236">
        <ele>212</ele>
        <time>2015-01-21T11:15:50Z</time>
      </trkpt>
      <trkpt lat="43.97189" lon="0.26243">
        <ele>212</ele>
        <time>2015-01-21T11:16:21Z</time>
      </trkpt>
      <trkpt lat="43.97189" lon="0.26243">
        <ele>212</ele>
        <time>2015-01-21T11:16:51Z</time>
      </trkpt>
      <trkpt lat="43.97188" lon="0.26241">
        <ele>212</ele>
        <time>2015-01-21T11:17:21Z</time>
      </trkpt>
      <trkpt lat="43.97184" lon="0.2624">
        <ele>212</ele>
        <time>2015-01-21T11:17:51Z</time>
      </trkpt>
      <trkpt lat="43.97176" lon="0.26251">
        <ele>212</ele>
        <time>2015-01-21T11:18:21Z</time>
      </trkpt>
      <trkpt lat="43.97151" lon="0.26275">
        <ele>215</ele>
        <time>2015-01-21T11:18:51Z</time>
      </trkpt>
      <trkpt lat="43.97134" lon="0.26299">
        <ele>219</ele>
        <time>2015-01-21T11:19:22Z</time>
      </trkpt>
      <trkpt lat="43.9713" lon="0.263">
        <ele>219</ele>
        <time>2015-01-21T11:19:52Z</time>
      </trkpt>
      <trkpt lat="43.9707" lon="0.26291">
        <ele>223</ele>
        <time>2015-01-21T11:20:22Z</time>
      </trkpt>
      <trkpt lat="43.97006" lon="0.26279">
        <ele>228</ele>
        <time>2015-01-21T11:20:52Z</time>
      </trkpt>
      <trkpt lat="43.96935" lon="0.26261">
        <ele>228</ele>
        <time>2015-01-21T11:21:22Z</time>
      </trkpt>
      <trkpt lat="43.96861" lon="0.2624">
        <ele>228</ele>
        <time>2015-01-21T11:21:52Z</time>
      </trkpt>
      <trkpt lat="43.96816" lon="0.26232">
        <ele>220</ele>
        <time>2015-01-21T11:22:23Z</time>
      </trkpt>
      <trkpt lat="43.96811" lon="0.26231">
        <ele>225</ele>
        <time>2015-01-21T11:22:53Z</time>
      </trkpt>
      <trkpt lat="43.96808" lon="0.26231">
        <ele>225</ele>
        <time>2015-01-21T11:23:23Z</time>
      </trkpt>
      <trkpt lat="43.96807" lon="0.26233">
        <ele>225</ele>
        <time>2015-01-21T11:23:53Z</time>
      </trkpt>
      <trkpt lat="43.96808" lon="0.26234">
        <ele>225</ele>
        <time>2015-01-21T11:24:23Z</time>
      </trkpt>
      <trkpt lat="43.96811" lon="0.26234">
        <ele>225</ele>
        <time>2015-01-21T11:24:53Z</time>
      </trkpt>
      <trkpt lat="43.9681" lon="0.26231">
        <ele>225</ele>
        <time>2015-01-21T11:25:24Z</time>
      </trkpt>
      <trkpt lat="43.96869" lon="0.26245">
        <ele>227</ele>
        <time>2015-01-21T11:25:54Z</time>
      </trkpt>
      <trkpt lat="43.96957" lon="0.26267">
        <ele>227</ele>
        <time>2015-01-21T11:26:24Z</time>
      </trkpt>
      <trkpt lat="43.9706" lon="0.26293">
        <ele>227</ele>
        <time>2015-01-21T11:26:54Z</time>
      </trkpt>
      <trkpt lat="43.97142" lon="0.2639">
        <ele>227</ele>
        <time>2015-01-21T11:27:24Z</time>
      </trkpt>
      <trkpt lat="43.97139" lon="0.2652">
        <ele>227</ele>
        <time>2015-01-21T11:27:54Z</time>
      </trkpt>
      <trkpt lat="43.97144" lon="0.26734">
        <ele>227</ele>
        <time>2015-01-21T11:28:25Z</time>
      </trkpt>
      <trkpt lat="43.97102" lon="0.26949">
        <ele>221</ele>
        <time>2015-01-21T11:28:55Z</time>
      </trkpt>
      <trkpt lat="43.97101" lon="0.26967">
        <ele>221</ele>
        <time>2015-01-21T11:29:25Z</time>
      </trkpt>
      <trkpt lat="43.97106" lon="0.27146">
        <ele>215</ele>
        <time>2015-01-21T11:29:55Z</time>
      </trkpt>
      <trkpt lat="43.97132" lon="0.2734">
        <ele>215</ele>
        <time>2015-01-21T11:30:25Z</time>
      </trkpt>
      <trkpt lat="43.97133" lon="0.27534">
        <ele>209</ele>
        <time>2015-01-21T11:30:55Z</time>
      </trkpt>
      <trkpt lat="43.97141" lon="0.27569">
        <ele>209</ele>
        <time>2015-01-21T11:31:26Z</time>
      </trkpt>
      <trkpt lat="43.97108" lon="0.27676">
        <ele>209</ele>
        <time>2015-01-21T11:31:56Z</time>
      </trkpt>
      <trkpt lat="43.97072" lon="0.27784">
        <ele>209</ele>
        <time>2015-01-21T11:32:26Z</time>
      </trkpt>
      <trkpt lat="43.97044" lon="0.27793">
        <ele>202</ele>
        <time>2015-01-21T11:32:56Z</time>
      </trkpt>
      <trkpt lat="43.97021" lon="0.2782">
        <ele>197</ele>
        <time>2015-01-21T11:33:26Z</time>
      </trkpt>
      <trkpt lat="43.97015" lon="0.27871">
        <ele>197</ele>
        <time>2015-01-21T11:33:57Z</time>
      </trkpt>
      <trkpt lat="43.96988" lon="0.27891">
        <ele>192</ele>
        <time>2015-01-21T11:34:27Z</time>
      </trkpt>
      <trkpt lat="43.9695" lon="0.27887">
        <ele>192</ele>
        <time>2015-01-21T11:34:57Z</time>
      </trkpt>
      <trkpt lat="43.96917" lon="0.27887">
        <ele>188</ele>
        <time>2015-01-21T11:35:27Z</time>
      </trkpt>
      <trkpt lat="43.96917" lon="0.27887">
        <ele>188</ele>
        <time>2015-01-21T11:35:57Z</time>
      </trkpt>
      <trkpt lat="43.96917" lon="0.27889">
        <ele>184</ele>
        <time>2015-01-21T11:36:27Z</time>
      </trkpt>
      <trkpt lat="43.96915" lon="0.27886">
        <ele>184</ele>
        <time>2015-01-21T11:36:58Z</time>
      </trkpt>
      <trkpt lat="43.96916" lon="0.27875">
        <ele>188</ele>
        <time>2015-01-21T11:37:28Z</time>
      </trkpt>
      <trkpt lat="43.96935" lon="0.27782">
        <ele>188</ele>
        <time>2015-01-21T11:37:58Z</time>
      </trkpt>
      <trkpt lat="43.96952" lon="0.27652">
        <ele>192</ele>
        <time>2015-01-21T11:38:28Z</time>
      </trkpt>
      <trkpt lat="43.96979" lon="0.27545">
        <ele>192</ele>
        <time>2015-01-21T11:38:58Z</time>
      </trkpt>
      <trkpt lat="43.97007" lon="0.27546">
        <ele>196</ele>
        <time>2015-01-21T11:39:28Z</time>
      </trkpt>
      <trkpt lat="43.97041" lon="0.27549">
        <ele>196</ele>
        <time>2015-01-21T11:39:58Z</time>
      </trkpt>
      <trkpt lat="43.9709" lon="0.27552">
        <ele>207</ele>
        <time>2015-01-21T11:40:29Z</time>
      </trkpt>
      <trkpt lat="43.97134" lon="0.27561">
        <ele>211</ele>
        <time>2015-01-21T11:40:59Z</time>
      </trkpt>
      <trkpt lat="43.97155" lon="0.27577">
        <ele>211</ele>
        <time>2015-01-21T11:41:29Z</time>
      </trkpt>
      <trkpt lat="43.97154" lon="0.27574">
        <ele>211</ele>
        <time>2015-01-21T11:41:59Z</time>
      </trkpt>
      <trkpt lat="43.97135" lon="0.27609">
        <ele>211</ele>
        <time>2015-01-21T11:42:29Z</time>
      </trkpt>
      <trkpt lat="43.97112" lon="0.27727">
        <ele>211</ele>
        <time>2015-01-21T11:42:59Z</time>
      </trkpt>
      <trkpt lat="43.97103" lon="0.27822">
        <ele>209</ele>
        <time>2015-01-21T11:43:30Z</time>
      </trkpt>
      <trkpt lat="43.97125" lon="0.27856">
        <ele>205</ele>
        <time>2015-01-21T11:44:00Z</time>
      </trkpt>
      <trkpt lat="43.97185" lon="0.27866">
        <ele>205</ele>
        <time>2015-01-21T11:44:30Z</time>
      </trkpt>
      <trkpt lat="43.97204" lon="0.27885">
        <ele>199</ele>
        <time>2015-01-21T11:45:00Z</time>
      </trkpt>
      <trkpt lat="43.97218" lon="0.27903">
        <ele>199</ele>
        <time>2015-01-21T11:45:30Z</time>
      </trkpt>
      <trkpt lat="43.97238" lon="0.27933">
        <ele>195</ele>
        <time>2015-01-21T11:46:00Z</time>
      </trkpt>
      <trkpt lat="43.97261" lon="0.27971">
        <ele>190</ele>
        <time>2015-01-21T11:46:31Z</time>
      </trkpt>
      <trkpt lat="43.97295" lon="0.27988">
        <ele>190</ele>
        <time>2015-01-21T11:47:01Z</time>
      </trkpt>
      <trkpt lat="43.9738" lon="0.27999">
        <ele>190</ele>
        <time>2015-01-21T11:47:31Z</time>
      </trkpt>
      <trkpt lat="43.97375" lon="0.27999">
        <ele>186</ele>
        <time>2015-01-21T11:48:01Z</time>
      </trkpt>
      <trkpt lat="43.9743" lon="0.2799">
        <ele>186</ele>
        <time>2015-01-21T11:48:31Z</time>
      </trkpt>
      <trkpt lat="43.97498" lon="0.27983">
        <ele>182</ele>
        <time>2015-01-21T11:49:01Z</time>
      </trkpt>
      <trkpt lat="43.9755" lon="0.28011">
        <ele>178</ele>
        <time>2015-01-21T11:49:32Z</time>
      </trkpt>
      <trkpt lat="43.97583" lon="0.28007">
        <ele>184</ele>
        <time>2015-01-21T11:50:02Z</time>
      </trkpt>
      <trkpt lat="43.97599" lon="0.28038">
        <ele>184</ele>
        <time>2015-01-21T11:50:32Z</time>
      </trkpt>
      <trkpt lat="43.9764" lon="0.28235">
        <ele>179</ele>
        <time>2015-01-21T11:51:02Z</time>
      </trkpt>
      <trkpt lat="43.97637" lon="0.28256">
        <ele>179</ele>
        <time>2015-01-21T11:51:32Z</time>
      </trkpt>
      <trkpt lat="43.97601" lon="0.28375">
        <ele>175</ele>
        <time>2015-01-21T11:52:03Z</time>
      </trkpt>
      <trkpt lat="43.97565" lon="0.28459">
        <ele>175</ele>
        <time>2015-01-21T11:52:33Z</time>
      </trkpt>
      <trkpt lat="43.97572" lon="0.28445">
        <ele>175</ele>
        <time>2015-01-21T11:53:03Z</time>
      </trkpt>
      <trkpt lat="43.97603" lon="0.28454">
        <ele>175</ele>
        <time>2015-01-21T11:53:33Z</time>
      </trkpt>
      <trkpt lat="43.97633" lon="0.28478">
        <ele>175</ele>
        <time>2015-01-21T11:54:03Z</time>
      </trkpt>
      <trkpt lat="43.97654" lon="0.28507">
        <ele>180</ele>
        <time>2015-01-21T11:54:33Z</time>
      </trkpt>
      <trkpt lat="43.97654" lon="0.28536">
        <ele>180</ele>
        <time>2015-01-21T11:55:04Z</time>
      </trkpt>
      <trkpt lat="43.97656" lon="0.28586">
        <ele>180</ele>
        <time>2015-01-21T11:55:34Z</time>
      </trkpt>
      <trkpt lat="43.97664" lon="0.28633">
        <ele>185</ele>
        <time>2015-01-21T11:56:04Z</time>
      </trkpt>
      <trkpt lat="43.97678" lon="0.28679">
        <ele>185</ele>
        <time>2015-01-21T11:56:34Z</time>
      </trkpt>
      <trkpt lat="43.97692" lon="0.28721">
        <ele>191</ele>
        <time>2015-01-21T11:57:04Z</time>
      </trkpt>
      <trkpt lat="43.97702" lon="0.2875">
        <ele>191</ele>
        <time>2015-01-21T11:57:34Z</time>
      </trkpt>
      <trkpt lat="43.9771" lon="0.2878">
        <ele>191</ele>
        <time>2015-01-21T11:58:05Z</time>
      </trkpt>
      <trkpt lat="43.97721" lon="0.28824">
        <ele>195</ele>
        <time>2015-01-21T11:58:35Z</time>
      </trkpt>
      <trkpt lat="43.97736" lon="0.28864">
        <ele>199</ele>
        <time>2015-01-21T11:59:05Z</time>
      </trkpt>
      <trkpt lat="43.97748" lon="0.28901">
        <ele>199</ele>
        <time>2015-01-21T11:59:35Z</time>
      </trkpt>
      <trkpt lat="43.97772" lon="0.28934">
        <ele>203</ele>
        <time>2015-01-21T12:00:05Z</time>
      </trkpt>
      <trkpt lat="43.97798" lon="0.28968">
        <ele>207</ele>
        <time>2015-01-21T12:00:35Z</time>
      </trkpt>
      <trkpt lat="43.97816" lon="0.28989">
        <ele>207</ele>
        <time>2015-01-21T12:01:05Z</time>
      </trkpt>
      <trkpt lat="43.97835" lon="0.28964">
        <ele>207</ele>
        <time>2015-01-21T12:01:36Z</time>
      </trkpt>
      <trkpt lat="43.97859" lon="0.28931">
        <ele>207</ele>
        <time>2015-01-21T12:02:06Z</time>
      </trkpt>
      <trkpt lat="43.97877" lon="0.28917">
        <ele>212</ele>
        <time>2015-01-21T12:02:36Z</time>
      </trkpt>
      <trkpt lat="43.97904" lon="0.28896">
        <ele>212</ele>
        <time>2015-01-21T12:03:06Z</time>
      </trkpt>
      <trkpt lat="43.97932" lon="0.28864">
        <ele>212</ele>
        <time>2015-01-21T12:03:36Z</time>
      </trkpt>
      <trkpt lat="43.97949" lon="0.28835">
        <ele>212</ele>
        <time>2015-01-21T12:04:06Z</time>
      </trkpt>
      <trkpt lat="43.97964" lon="0.28794">
        <ele>212</ele>
        <time>2015-01-21T12:04:37Z</time>
      </trkpt>
      <trkpt lat="43.9798" lon="0.28757">
        <ele>212</ele>
        <time>2015-01-21T12:05:07Z</time>
      </trkpt>
      <trkpt lat="43.98" lon="0.28718">
        <ele>215</ele>
        <time>2015-01-21T12:05:37Z</time>
      </trkpt>
      <trkpt lat="43.98014" lon="0.28684">
        <ele>215</ele>
        <time>2015-01-21T12:06:07Z</time>
      </trkpt>
      <trkpt lat="43.98016" lon="0.28668">
        <ele>215</ele>
        <time>2015-01-21T12:06:37Z</time>
      </trkpt>
      <trkpt lat="43.98055" lon="0.28578">
        <ele>215</ele>
        <time>2015-01-21T12:07:08Z</time>
      </trkpt>
      <trkpt lat="43.98087" lon="0.28481">
        <ele>215</ele>
        <time>2015-01-21T12:07:38Z</time>
      </trkpt>
      <trkpt lat="43.98101" lon="0.28356">
        <ele>215</ele>
        <time>2015-01-21T12:08:08Z</time>
      </trkpt>
      <trkpt lat="43.98122" lon="0.28231">
        <ele>215</ele>
        <time>2015-01-21T12:08:38Z</time>
      </trkpt>
      <trkpt lat="43.98135" lon="0.28175">
        <ele>215</ele>
        <time>2015-01-21T12:09:08Z</time>
      </trkpt>
      <trkpt lat="43.98218" lon="0.28222">
        <ele>208</ele>
        <time>2015-01-21T12:09:38Z</time>
      </trkpt>
      <trkpt lat="43.98311" lon="0.28279">
        <ele>202</ele>
        <time>2015-01-21T12:10:09Z</time>
      </trkpt>
      <trkpt lat="43.98391" lon="0.28324">
        <ele>195</ele>
        <time>2015-01-21T12:10:39Z</time>
      </trkpt>
      <trkpt lat="43.98411" lon="0.28349">
        <ele>195</ele>
        <time>2015-01-21T12:11:09Z</time>
      </trkpt>
      <trkpt lat="43.98409" lon="0.28397">
        <ele>190</ele>
        <time>2015-01-21T12:11:39Z</time>
      </trkpt>
      <trkpt lat="43.98412" lon="0.28438">
        <ele>185</ele>
        <time>2015-01-21T12:12:09Z</time>
      </trkpt>
      <trkpt lat="43.98427" lon="0.28475">
        <ele>185</ele>
        <time>2015-01-21T12:12:39Z</time>
      </trkpt>
      <trkpt lat="43.98454" lon="0.28501">
        <ele>180</ele>
        <time>2015-01-21T12:13:10Z</time>
      </trkpt>
      <trkpt lat="43.98481" lon="0.28527">
        <ele>176</ele>
        <time>2015-01-21T12:13:40Z</time>
      </trkpt>
      <trkpt lat="43.98497" lon="0.28544">
        <ele>176</ele>
        <time>2015-01-21T12:14:10Z</time>
      </trkpt>
      <trkpt lat="43.98517" lon="0.28584">
        <ele>176</ele>
        <time>2015-01-21T12:14:40Z</time>
      </trkpt>
      <trkpt lat="43.98536" lon="0.28622">
        <ele>176</ele>
        <time>2015-01-21T12:15:10Z</time>
      </trkpt>
      <trkpt lat="43.98557" lon="0.28656">
        <ele>176</ele>
        <time>2015-01-21T12:15:40Z</time>
      </trkpt>
      <trkpt lat="43.98581" lon="0.28672">
        <ele>176</ele>
        <time>2015-01-21T12:16:11Z</time>
      </trkpt>
      <trkpt lat="43.98608" lon="0.2869">
        <ele>182</ele>
        <time>2015-01-21T12:16:41Z</time>
      </trkpt>
      <trkpt lat="43.98627" lon="0.28709">
        <ele>182</ele>
        <time>2015-01-21T12:17:11Z</time>
      </trkpt>
      <trkpt lat="43.98653" lon="0.28735">
        <ele>182</ele>
        <time>2015-01-21T12:17:41Z</time>
      </trkpt>
      <trkpt lat="43.98678" lon="0.28756">
        <ele>182</ele>
        <time>2015-01-21T12:18:11Z</time>
      </trkpt>
      <trkpt lat="43.98689" lon="0.28763">
        <ele>178</ele>
        <time>2015-01-21T12:18:41Z</time>
      </trkpt>
      <trkpt lat="43.98696" lon="0.28766">
        <ele>178</ele>
        <time>2015-01-21T12:19:12Z</time>
      </trkpt>
      <trkpt lat="43.98694" lon="0.28767">
        <ele>178</ele>
        <time>2015-01-21T12:19:42Z</time>
      </trkpt>
      <trkpt lat="43.987" lon="0.28773">
        <ele>178</ele>
        <time>2015-01-21T12:20:12Z</time>
      </trkpt>
      <trkpt lat="43.9873" lon="0.28794">
        <ele>178</ele>
        <time>2015-01-21T12:20:42Z</time>
      </trkpt>
      <trkpt lat="43.98758" lon="0.28812">
        <ele>178</ele>
        <time>2015-01-21T12:21:12Z</time>
      </trkpt>
      <trkpt lat="43.9878" lon="0.2883">
        <ele>182</ele>
        <time>2015-01-21T12:21:42Z</time>
      </trkpt>
      <trkpt lat="43.98799" lon="0.28843">
        <ele>182</ele>
        <time>2015-01-21T12:22:13Z</time>
      </trkpt>
      <trkpt lat="43.98825" lon="0.28864">
        <ele>186</ele>
        <time>2015-01-21T12:22:43Z</time>
      </trkpt>
      <trkpt lat="43.9884" lon="0.28873">
        <ele>190</ele>
        <time>2015-01-21T12:23:13Z</time>
      </trkpt>
      <trkpt lat="43.98856" lon="0.28883">
        <ele>190</ele>
        <time>2015-01-21T12:23:43Z</time>
      </trkpt>
      <trkpt lat="43.9888" lon="0.28898">
        <ele>190</ele>
        <time>2015-01-21T12:24:13Z</time>
      </trkpt>
      <trkpt lat="43.98901" lon="0.28918">
        <ele>197</ele>
        <time>2015-01-21T12:24:43Z</time>
      </trkpt>
      <trkpt lat="43.98925" lon="0.28934">
        <ele>197</ele>
        <time>2015-01-21T12:25:13Z</time>
      </trkpt>
      <trkpt lat="43.9895" lon="0.28955">
        <ele>201</ele>
        <time>2015-01-21T12:25:44Z</time>
      </trkpt>
      <trkpt lat="43.98975" lon="0.28973">
        <ele>201</ele>
        <time>2015-01-21T12:26:14Z</time>
      </trkpt>
      <trkpt lat="43.99001" lon="0.28987">
        <ele>207</ele>
        <time>2015-01-21T12:26:44Z</time>
      </trkpt>
      <trkpt lat="43.99021" lon="0.29004">
        <ele>207</ele>
        <time>2015-01-21T12:27:14Z</time>
      </trkpt>
      <trkpt lat="43.99045" lon="0.29007">
        <ele>212</ele>
        <time>2015-01-21T12:27:44Z</time>
      </trkpt>
    </trkseg>
  </trk>
</gpx>